createdAt,value
2023-02-02T00:01:43.612Z,20.33
2023-02-02T00:04:24.022Z,12.47
2023-02-02T00:06:50.670Z,14.13
2023-02-02T00:09:19.139Z,15.10
2023-02-02T00:11:57.811Z,12.67
2023-02-02T00:14:44.630Z,16.70
2023-02-02T00:17:11.243Z,10.33
2023-02-02T00:19:37.908Z,14.33
2023-02-02T00:22:07.092Z,11.97
2023-02-02T00:24:33.816Z,10.03
2023-02-02T00:27:00.784Z,12.17
2023-02-02T00:29:29.814Z,16.20
2023-02-02T00:31:56.750Z,14.60
2023-02-02T00:34:26.406Z,9.30
2023-02-02T00:36:57.624Z,12.30
2023-02-02T00:39:28.574Z,20.17
2023-02-02T00:41:55.265Z,10.30
2023-02-02T00:44:40.468Z,16.87
2023-02-02T00:47:07.119Z,12.63
2023-02-02T00:49:33.747Z,7.10
2023-02-02T00:52:00.526Z,10.27
2023-02-02T00:54:27.646Z,11.10
2023-02-02T00:56:54.541Z,13.40
2023-02-02T00:59:21.213Z,16.50
2023-02-02T01:01:48.007Z,19.23
2023-02-02T01:04:14.614Z,14.73
2023-02-02T01:06:41.315Z,9.53
2023-02-02T01:09:08.314Z,10.93
2023-02-02T01:11:34.947Z,17.37
2023-02-02T01:14:02.856Z,8.70
2023-02-02T01:16:29.690Z,17.93
2023-02-02T01:18:56.395Z,14.70
2023-02-02T01:21:23.601Z,12.67
2023-02-02T01:23:50.392Z,14.47
2023-02-02T01:26:22.263Z,9.80
2023-02-02T01:28:48.938Z,16.97
2023-02-02T01:31:17.607Z,17.47
2023-02-02T01:33:45.415Z,12.87
2023-02-02T01:36:14.596Z,14.73
2023-02-02T01:38:42.558Z,14.17
2023-02-02T01:41:12.922Z,25.07
2023-02-02T01:43:45.501Z,11.97
2023-02-02T01:46:16.312Z,12.00
2023-02-02T01:48:52.477Z,11.77
2023-02-02T01:51:38.794Z,19.73
2023-02-02T01:54:08.587Z,22.57
2023-02-02T01:56:39.692Z,17.20
2023-02-02T01:59:06.476Z,11.87
2023-02-02T02:01:33.473Z,14.20
2023-02-02T02:04:00.536Z,10.87
2023-02-02T02:06:28.517Z,11.67
2023-02-02T02:09:00.352Z,19.57
2023-02-02T02:11:27.351Z,13.13
2023-02-02T02:14:14.104Z,10.07
2023-02-02T02:17:02.896Z,6.73
2023-02-02T02:20:07.539Z,8.87
2023-02-02T02:23:14.485Z,12.10
2023-02-02T02:26:32.317Z,17.00
2023-02-02T02:29:17.654Z,19.43
2023-02-02T02:31:53.899Z,14.73
2023-02-02T02:34:39.468Z,23.77
2023-02-02T02:37:26.739Z,14.83
2023-02-02T02:40:16.641Z,17.83
2023-02-02T02:42:48.871Z,9.97
2023-02-02T02:45:19.848Z,15.07
2023-02-02T02:47:49.771Z,15.57
2023-02-02T02:50:27.885Z,24.00
2023-02-02T02:53:17.035Z,17.23
2023-02-02T02:55:53.932Z,14.87
2023-02-02T02:58:32.139Z,18.93
2023-02-02T03:01:10.260Z,17.07
2023-02-02T03:03:57.949Z,9.63
2023-02-02T03:06:48.254Z,12.60
2023-02-02T03:09:31.480Z,14.23
2023-02-02T03:12:00.452Z,19.10
2023-02-02T03:14:29.414Z,13.10
2023-02-02T03:16:56.120Z,12.70
2023-02-02T03:19:23.939Z,12.17
2023-02-02T03:21:58.141Z,13.03
2023-02-02T03:24:42.457Z,17.20
2023-02-02T03:27:09.083Z,9.70
2023-02-02T03:29:35.811Z,19.37
2023-02-02T03:32:05.231Z,8.87
2023-02-02T03:34:31.936Z,24.60
2023-02-02T03:36:58.717Z,16.77
2023-02-02T03:39:28.287Z,17.90
2023-02-02T03:41:57.631Z,14.53
2023-02-02T03:44:33.210Z,11.20
2023-02-02T03:46:59.979Z,14.50
2023-02-02T03:49:29.743Z,10.83
2023-02-02T03:51:58.825Z,12.03
2023-02-02T03:54:29.480Z,12.50
2023-02-02T03:56:58.974Z,10.17
2023-02-02T03:59:30.463Z,15.93
2023-02-02T04:01:59.648Z,10.90
2023-02-02T04:04:34.020Z,11.10
2023-02-02T04:07:01.811Z,4.53
2023-02-02T04:09:28.573Z,14.83
2023-02-02T04:11:57.613Z,20.53
2023-02-02T04:14:31.836Z,13.43
2023-02-02T04:16:58.445Z,17.33
2023-02-02T04:19:27.020Z,15.00
2023-02-02T04:21:59.043Z,12.77
2023-02-02T04:24:25.782Z,15.57
2023-02-02T04:26:52.528Z,13.67
2023-02-02T04:29:19.163Z,17.83
2023-02-02T04:31:45.888Z,20.27
2023-02-02T04:34:17.813Z,17.33
2023-02-02T04:36:44.781Z,16.87
2023-02-02T04:39:12.257Z,16.50
2023-02-02T04:41:38.999Z,13.03
2023-02-02T04:44:06.842Z,16.83
2023-02-02T04:46:33.616Z,16.07
2023-02-02T04:49:00.182Z,14.30
2023-02-02T04:51:26.847Z,16.93
2023-02-02T04:53:53.517Z,15.43
2023-02-02T04:56:20.060Z,16.33
2023-02-02T04:58:49.137Z,13.47
2023-02-02T05:01:18.972Z,15.77
2023-02-02T05:03:46.178Z,8.50
2023-02-02T05:06:15.784Z,19.00
2023-02-02T05:08:43.353Z,8.87
2023-02-02T05:11:11.274Z,16.13
2023-02-02T05:13:38.231Z,13.03
2023-02-02T05:16:05.490Z,17.07
2023-02-02T05:18:32.752Z,13.63
2023-02-02T05:21:03.748Z,14.93
2023-02-02T05:23:30.823Z,13.20
2023-02-02T05:25:57.617Z,17.57
2023-02-02T05:28:24.809Z,13.63
2023-02-02T05:30:51.646Z,22.50
2023-02-02T05:33:19.540Z,15.03
2023-02-02T05:35:49.425Z,24.03
2023-02-02T05:38:16.422Z,18.13
2023-02-02T05:40:43.056Z,14.93
2023-02-02T05:43:09.775Z,7.87
2023-02-02T05:45:36.624Z,14.93
2023-02-02T05:48:03.375Z,14.57
2023-02-02T05:50:30.059Z,12.83
2023-02-02T05:53:04.137Z,15.70
2023-02-02T05:55:30.747Z,12.97
2023-02-02T05:57:59.672Z,14.67
2023-02-02T06:00:26.422Z,16.40
2023-02-02T06:02:53.080Z,13.33
2023-02-02T06:05:23.392Z,15.17
2023-02-02T06:07:59.039Z,13.03
2023-02-02T06:10:25.648Z,20.00
2023-02-02T06:12:52.247Z,20.53
2023-02-02T06:15:29.358Z,15.90
2023-02-02T06:17:56.129Z,11.17
2023-02-02T06:20:22.905Z,17.63
2023-02-02T06:22:59.358Z,11.50
2023-02-02T06:25:26.223Z,14.80
2023-02-02T06:27:59.969Z,18.10
2023-02-02T06:30:27.702Z,11.90
2023-02-02T06:32:54.500Z,8.60
2023-02-02T06:35:21.322Z,14.83
2023-02-02T06:37:48.401Z,11.10
2023-02-02T06:40:15.343Z,6.67
2023-02-02T06:43:04.721Z,9.87
2023-02-02T06:45:31.527Z,14.07
2023-02-02T06:48:04.139Z,6.63
2023-02-02T06:50:30.877Z,6.87
2023-02-02T06:52:57.840Z,6.13
2023-02-02T06:55:24.811Z,8.50
2023-02-02T06:57:57.506Z,16.83
2023-02-02T07:00:25.736Z,7.70
2023-02-02T07:02:55.670Z,8.60
2023-02-02T07:05:24.222Z,14.00
2023-02-02T07:07:51.351Z,8.07
2023-02-02T07:11:13.664Z,10.60
2023-02-02T07:13:06.927Z,10.20
2023-02-02T07:15:34.532Z,18.37
2023-02-02T07:18:01.247Z,5.33
2023-02-02T07:20:27.924Z,8.17
2023-02-02T07:22:54.482Z,12.93
2023-02-02T07:25:21.137Z,8.83
2023-02-02T07:27:54.863Z,8.27
2023-02-02T07:30:22.073Z,7.60
2023-02-02T07:32:49.903Z,6.73
2023-02-02T07:35:22.510Z,6.80
2023-02-02T07:37:53.747Z,9.30
2023-02-02T07:40:20.578Z,5.27
2023-02-02T07:42:56.067Z,6.30
2023-02-02T07:45:27.534Z,4.50
2023-02-02T07:47:57.117Z,9.23
2023-02-02T07:50:24.066Z,3.73
2023-02-02T07:52:51.182Z,11.90
2023-02-02T07:55:20.801Z,7.73
2023-02-02T07:57:48.532Z,4.77
2023-02-02T08:00:19.737Z,9.07
2023-02-02T08:02:51.649Z,6.20
2023-02-02T08:05:27.540Z,8.23
2023-02-02T08:07:54.341Z,13.27
2023-02-02T08:10:24.505Z,12.90
2023-02-02T08:13:00.355Z,8.87
2023-02-02T08:15:27.266Z,7.63
2023-02-02T08:17:54.127Z,7.47
2023-02-02T08:20:27.998Z,9.93
2023-02-02T08:22:54.676Z,6.63
2023-02-02T08:25:25.783Z,10.23
2023-02-02T08:27:58.741Z,10.33
2023-02-02T08:30:25.509Z,9.80
2023-02-02T08:32:52.234Z,10.73
2023-02-02T08:35:40.236Z,9.10
2023-02-02T08:38:21.136Z,9.83
2023-02-02T08:40:47.735Z,9.50
2023-02-02T08:43:16.499Z,8.33
2023-02-02T08:46:01.532Z,7.93
2023-02-02T08:48:37.658Z,5.57
2023-02-02T08:51:04.863Z,6.37
2023-02-02T08:53:32.484Z,9.90
2023-02-02T08:56:09.727Z,6.17
2023-02-02T08:58:52.312Z,12.70
2023-02-02T09:01:28.838Z,7.73
2023-02-02T09:03:57.233Z,6.60
2023-02-02T09:06:28.660Z,10.70
2023-02-02T09:09:04.609Z,8.40
2023-02-02T09:11:31.647Z,4.70
2023-02-02T09:13:59.657Z,4.67
2023-02-02T09:16:33.033Z,6.63
2023-02-02T09:18:59.975Z,8.50
2023-02-02T09:21:26.658Z,8.00
2023-02-02T09:24:03.278Z,7.47
2023-02-02T09:26:30.269Z,8.63
2023-02-02T09:29:02.662Z,7.53
2023-02-02T09:31:31.425Z,9.70
2023-02-02T09:34:04.323Z,7.57
2023-02-02T09:36:31.372Z,7.93
2023-02-02T09:39:02.166Z,4.40
2023-02-02T09:41:34.923Z,8.50
2023-02-02T09:44:24.438Z,6.10
2023-02-02T09:46:57.200Z,6.00
2023-02-02T09:50:07.997Z,7.37
2023-02-02T09:52:34.664Z,4.97
2023-02-02T09:55:32.656Z,10.40
2023-02-02T09:58:12.237Z,11.30
2023-02-02T10:00:44.337Z,8.80
2023-02-02T10:03:16.486Z,9.03
2023-02-02T10:05:57.855Z,9.03
2023-02-02T10:08:34.977Z,11.90
2023-02-02T10:11:12.395Z,11.87
2023-02-02T10:13:59.515Z,5.57
2023-02-02T10:16:26.512Z,4.60
2023-02-02T10:18:57.977Z,8.20
2023-02-02T10:21:45.771Z,7.10
2023-02-02T10:24:27.945Z,8.97
2023-02-02T10:27:05.662Z,13.10
2023-02-02T10:29:48.930Z,13.80
2023-02-02T10:32:30.921Z,10.63
2023-02-02T10:35:22.418Z,14.33
2023-02-02T10:38:00.879Z,7.70
2023-02-02T10:40:44.500Z,9.60
2023-02-02T10:43:47.993Z,8.27
2023-02-02T10:46:27.796Z,8.20
2023-02-02T10:49:21.612Z,8.13
2023-02-02T10:52:04.776Z,11.53
2023-02-02T10:54:58.445Z,12.63
2023-02-02T10:57:47.727Z,7.10
2023-02-02T11:00:20.201Z,7.40
2023-02-02T11:02:49.802Z,7.60
2023-02-02T11:05:49.276Z,19.70
2023-02-02T11:08:18.900Z,15.47
2023-02-02T11:10:47.301Z,9.60
2023-02-02T11:13:31.816Z,11.20
2023-02-02T11:16:16.837Z,10.57
2023-02-02T11:18:55.268Z,8.10
2023-02-02T11:21:38.042Z,16.30
2023-02-02T11:24:21.271Z,19.47
2023-02-02T11:27:27.721Z,12.97
2023-02-02T11:34:33.149Z,9.03
2023-02-02T11:37:40.098Z,14.30
2023-02-02T11:40:55.481Z,10.30
2023-02-02T11:50:39.209Z,11.40
2023-02-02T11:53:31.012Z,11.17
2023-02-02T12:04:24.393Z,14.93
2023-02-02T12:07:00.528Z,8.40
2023-02-02T12:09:47.772Z,10.97
2023-02-02T12:17:06.371Z,7.43
2023-02-02T12:20:20.037Z,10.90
2023-02-02T12:22:58.811Z,9.60
2023-02-02T12:25:33.794Z,8.40
2023-02-02T12:28:39.572Z,8.70
2023-02-02T12:31:20.915Z,5.37
2023-02-02T12:34:21.352Z,6.80
2023-02-02T12:37:04.078Z,11.10
2023-02-02T12:39:45.234Z,6.50
2023-02-02T12:42:33.080Z,7.30
2023-02-02T12:45:07.912Z,7.57
2023-02-02T12:47:48.079Z,6.90
2023-02-02T12:50:39.661Z,10.30
2023-02-02T12:53:17.075Z,6.47
2023-02-02T12:56:04.978Z,5.20
2023-02-02T12:58:39.793Z,10.40
2023-02-02T13:01:31.862Z,10.20
2023-02-02T13:04:31.227Z,9.47
2023-02-02T13:07:29.091Z,8.10
2023-02-02T13:10:25.584Z,8.03
2023-02-02T13:12:58.143Z,9.40
2023-02-02T13:15:32.076Z,5.10
2023-02-02T13:18:00.924Z,9.57
2023-02-02T13:20:36.746Z,11.47
2023-02-02T13:23:21.948Z,11.57
2023-02-02T13:26:16.390Z,8.00
2023-02-02T13:29:05.861Z,11.90
2023-02-02T13:31:45.806Z,9.57
2023-02-02T13:34:35.863Z,11.00
2023-02-02T13:37:23.736Z,10.30
2023-02-02T13:39:57.026Z,8.13
2023-02-02T13:42:42.198Z,12.37
2023-02-02T13:45:49.793Z,11.97
2023-02-02T13:48:33.927Z,13.50
2023-02-02T13:51:15.923Z,16.23
2023-02-02T13:54:19.960Z,13.93
2023-02-02T14:00:03.654Z,8.10
2023-02-02T14:02:56.725Z,12.53
2023-02-02T14:05:27.292Z,8.77
2023-02-02T14:08:21.948Z,11.03
2023-02-02T14:11:33.513Z,15.83
2023-02-02T14:17:22.634Z,10.67
2023-02-02T14:20:27.681Z,12.23
2023-02-02T14:26:49.030Z,14.00
2023-02-02T14:30:12.966Z,7.10
2023-02-02T14:33:50.008Z,10.50
2023-02-02T14:36:22.879Z,9.40
2023-02-02T14:39:11.620Z,17.80
2023-02-02T14:42:14.879Z,12.90
2023-02-02T14:45:19.317Z,3.33
2023-02-02T14:47:54.617Z,17.20
2023-02-02T14:50:39.472Z,12.37
2023-02-02T14:53:13.174Z,10.97
2023-02-02T14:56:15.399Z,22.33
2023-02-02T14:58:51.341Z,15.40
2023-02-02T15:01:23.652Z,15.10
2023-02-02T15:04:10.284Z,15.30
2023-02-02T15:10:48.358Z,12.43
2023-02-02T15:13:17.506Z,8.33
2023-02-02T15:24:23.657Z,9.07
2023-02-02T15:27:16.166Z,14.20
2023-02-02T15:33:44.035Z,10.50
2023-02-02T15:37:16.397Z,7.57
2023-02-02T15:45:04.692Z,8.73
2023-02-02T15:50:39.661Z,10.60
2023-02-02T15:53:06.519Z,10.83
2023-02-02T15:55:42.821Z,8.37
2023-02-02T15:58:24.469Z,7.60
2023-02-02T16:01:03.592Z,8.00
2023-02-02T16:03:46.920Z,7.40
2023-02-02T16:06:23.043Z,12.47
2023-02-02T16:09:44.308Z,9.20
2023-02-02T16:12:24.713Z,9.00
2023-02-02T16:14:53.676Z,6.50
2023-02-02T16:18:20.468Z,10.70
2023-02-02T16:21:41.024Z,10.97
2023-02-02T16:24:22.643Z,9.00
2023-02-02T16:26:51.475Z,10.03
2023-02-02T16:29:19.220Z,10.60
2023-02-02T16:31:48.513Z,8.60
2023-02-02T16:34:22.105Z,8.90
2023-02-02T16:37:12.472Z,12.97
2023-02-02T16:39:43.163Z,15.67
2023-02-02T16:42:22.844Z,12.30
2023-02-02T16:44:49.728Z,13.87
2023-02-02T16:47:26.603Z,11.80
2023-02-02T16:50:30.898Z,13.63
2023-02-02T16:53:21.791Z,13.60
2023-02-02T16:55:51.162Z,9.90
2023-02-02T16:58:28.546Z,16.40
2023-02-02T17:01:08.828Z,15.17
2023-02-02T17:03:46.582Z,14.80
2023-02-02T17:06:13.978Z,12.60
2023-02-02T17:08:48.587Z,15.70
2023-02-02T17:11:28.681Z,11.90
2023-02-02T17:13:55.439Z,12.27
2023-02-02T17:16:25.495Z,13.50
2023-02-02T17:18:56.347Z,13.40
2023-02-02T17:21:24.576Z,14.70
2023-02-02T17:23:54.168Z,13.60
2023-02-02T17:26:31.606Z,14.87
2023-02-02T17:29:00.344Z,12.63
2023-02-02T17:31:27.225Z,14.30
2023-02-02T17:34:01.150Z,13.50
2023-02-02T17:36:27.757Z,15.73
2023-02-02T17:38:54.546Z,12.27
2023-02-02T17:41:21.238Z,13.93
2023-02-02T17:43:47.857Z,14.30
2023-02-02T17:46:18.680Z,14.37
2023-02-02T17:48:45.509Z,12.27
2023-02-02T17:51:16.843Z,14.87
2023-02-02T17:53:57.590Z,14.10
2023-02-02T17:56:31.812Z,14.47
2023-02-02T17:58:58.462Z,31.20
2023-02-02T18:01:25.142Z,15.70
2023-02-02T18:03:51.803Z,16.77
2023-02-02T18:06:18.632Z,13.87
2023-02-02T18:08:51.750Z,15.30
2023-02-02T18:11:18.704Z,16.07
2023-02-02T18:13:49.873Z,20.70
2023-02-02T18:16:24.940Z,14.20
2023-02-02T18:18:51.868Z,15.67
2023-02-02T18:21:18.652Z,12.70
2023-02-02T18:23:48.750Z,14.57
2023-02-02T18:26:18.217Z,14.90
2023-02-02T18:28:46.060Z,12.67
2023-02-02T18:31:14.292Z,12.17
2023-02-02T18:33:41.732Z,11.90
2023-02-02T18:36:19.043Z,14.93
2023-02-02T18:38:58.658Z,18.10
2023-02-02T18:41:25.540Z,13.17
2023-02-02T18:43:54.764Z,12.73
2023-02-02T18:46:28.540Z,14.60
2023-02-02T18:48:55.747Z,15.13
2023-02-02T18:51:22.742Z,13.33
2023-02-02T18:54:00.000Z,14.47
2023-02-02T18:56:27.602Z,14.53
2023-02-02T18:58:54.622Z,14.20
2023-02-02T19:01:31.375Z,12.20
2023-02-02T19:03:58.562Z,12.00
2023-02-02T19:06:45.409Z,15.03
2023-02-02T19:09:17.364Z,13.37
2023-02-02T19:11:49.153Z,14.30
2023-02-02T19:14:35.424Z,11.47
2023-02-02T19:17:14.795Z,16.10
2023-02-02T19:19:43.097Z,14.70
2023-02-02T19:22:24.283Z,14.07
2023-02-02T19:24:51.225Z,15.53
2023-02-02T19:27:21.251Z,14.27
2023-02-02T19:30:00.265Z,17.97
2023-02-02T19:32:31.906Z,15.70
2023-02-02T19:35:04.287Z,14.33
2023-02-02T19:37:32.519Z,15.67
2023-02-02T19:40:08.753Z,15.73
2023-02-02T19:42:40.601Z,13.47
2023-02-02T19:45:25.712Z,16.27
2023-02-02T19:48:00.575Z,14.87
2023-02-02T19:50:40.690Z,19.00
2023-02-02T19:53:30.449Z,14.37
2023-02-02T19:55:57.547Z,23.00
2023-02-02T19:58:28.316Z,17.10
2023-02-02T20:00:58.144Z,15.00
2023-02-02T20:03:25.017Z,14.13
2023-02-02T20:05:52.947Z,16.50
2023-02-02T20:08:31.821Z,14.73
2023-02-02T20:11:00.892Z,14.23
2023-02-02T20:13:54.982Z,13.70
2023-02-02T20:16:24.217Z,13.47
2023-02-02T20:18:53.944Z,15.20
2023-02-02T20:21:36.775Z,16.10
2023-02-02T20:24:11.047Z,18.30
2023-02-02T20:26:38.352Z,15.63
2023-02-02T20:29:38.850Z,18.27
2023-02-02T20:32:06.024Z,19.40
2023-02-02T20:34:36.125Z,21.07
2023-02-02T20:37:20.299Z,17.43
2023-02-02T20:39:54.002Z,18.03
2023-02-02T20:42:20.901Z,19.53
2023-02-02T20:44:47.961Z,16.63
2023-02-02T20:47:14.702Z,21.00
2023-02-02T20:49:44.017Z,21.33
2023-02-02T20:52:18.239Z,21.47
2023-02-02T20:54:44.856Z,23.30
2023-02-02T20:57:20.184Z,25.70
2023-02-02T20:59:46.854Z,26.13
2023-02-02T21:02:28.053Z,26.40
2023-02-02T21:04:54.813Z,25.93
2023-02-02T21:07:22.015Z,18.80
2023-02-02T21:09:58.667Z,22.00
2023-02-02T21:12:25.737Z,24.47
2023-02-02T21:14:53.876Z,21.40
2023-02-02T21:17:23.696Z,21.33
2023-02-02T21:19:50.587Z,18.53
2023-02-02T21:22:17.212Z,23.07
2023-02-02T21:24:43.899Z,27.43
2023-02-02T21:27:10.609Z,26.87
2023-02-02T21:29:47.405Z,25.27
2023-02-02T21:32:14.024Z,23.47
2023-02-02T21:34:40.648Z,21.43
2023-02-02T21:37:22.526Z,23.37
2023-02-02T21:39:53.479Z,23.40
2023-02-02T21:42:24.755Z,20.60
2023-02-02T21:44:56.355Z,25.80
2023-02-02T21:47:33.464Z,27.47
2023-02-02T21:50:23.123Z,27.37
2023-02-02T21:53:09.692Z,24.80
2023-02-02T21:55:45.199Z,27.10
2023-02-02T21:58:26.274Z,31.67
2023-02-02T22:00:54.045Z,28.50
2023-02-02T22:03:26.971Z,31.40
2023-02-02T22:06:21.965Z,34.73
2023-02-02T22:08:49.781Z,35.63
2023-02-02T22:11:36.464Z,37.37
2023-02-02T22:14:24.871Z,35.00
2023-02-02T22:16:58.403Z,35.77
2023-02-02T22:19:35.453Z,37.37
2023-02-02T22:25:28.906Z,38.13
2023-02-02T22:28:01.681Z,34.30
2023-02-02T22:30:53.994Z,32.07
2023-02-02T22:33:21.827Z,41.63
2023-02-02T22:35:48.474Z,31.97
2023-02-02T22:38:25.175Z,36.50
2023-02-02T22:40:52.163Z,39.00
2023-02-02T22:43:20.037Z,43.17
2023-02-02T22:45:47.220Z,37.47
2023-02-02T22:48:29.011Z,37.50
2023-02-02T22:50:55.812Z,42.13
2023-02-02T22:53:22.416Z,41.77
2023-02-02T22:55:56.749Z,38.47
2023-02-02T22:58:24.739Z,40.00
2023-02-02T23:00:51.435Z,40.77
2023-02-02T23:03:25.418Z,47.80
2023-02-02T23:05:52.142Z,42.63
2023-02-02T23:08:19.845Z,43.00
2023-02-02T23:10:53.588Z,46.57
2023-02-02T23:13:20.676Z,43.17
2023-02-02T23:15:47.323Z,45.07
2023-02-02T23:18:14.659Z,50.73
2023-02-02T23:20:41.251Z,46.20
2023-02-02T23:23:15.496Z,44.93
2023-02-02T23:25:42.265Z,44.27
2023-02-02T23:28:10.484Z,44.73
2023-02-02T23:30:44.436Z,42.13
2023-02-02T23:33:11.489Z,42.60
2023-02-02T23:35:38.144Z,45.03
2023-02-02T23:38:04.731Z,47.90
2023-02-02T23:40:31.408Z,47.23
2023-02-02T23:43:23.421Z,48.60
2023-02-02T23:45:50.114Z,44.50
2023-02-02T23:48:17.187Z,47.03
2023-02-02T23:50:45.040Z,42.90
2023-02-02T23:53:19.573Z,45.50
2023-02-02T23:55:46.211Z,47.57
2023-02-02T23:58:13.259Z,45.27
